Accueil
METAR-TAF:

METAR-TAF

Aéroports :

Shizuhama, Japon

latitude: 34-49N, longitude: 138-18E, altitude: 7 m

Observation

Le bulletin a été fait il y a 9 heures et 2 minutes, à 06:37 UTC
Vent 18 kt de sud-ouest avec des rafales jusqu'à 28 kt
Température 20°C
Humidité 26%
Pression 1011 hPa
Visibilité 10 km ou plus
Quelques nuages à une hauteur de 3000 ft

METAR: RJNY 080637Z 23018G28KT 9999 FEW030 20/M00 Q1011 RMK 1CU030 A2985

Heure: 00:39 (15:39 UTC)


TAF: absent

Observations et prévisions météorologiques de plus de 4000 aéroports (messages METAR et TAF).

Les stations disponibles sont représentées par des disques jaunes et rouges sur la carte.

Passer la souris dessus pour voir le nom de la station.

Cliquer dessus pour voir les observations et prévisions météorologiques.

Pour changer de carte: cliquez sur les boutons verts avec une croix noire pour zoomer, sur le bouton vert avec un tiret pour effectuer un zoom arrière, ou sur les flèches vertes pour les cartes adjacentes.


METAR-TAF: